< < Back
Terminal Aerodrome Forecast


Current Version              Previous Versions:   1  2  3  4  5  6  7  8  9  

Terminal Aerodrome Forecast

153
FTUS42 KCHS 010500
TAFSAV
TAF
KSAV 010520Z 0106/0206 VRB03KT P6SM SCT015 SCT250
     FM011900 14010KT P6SM SCT035 SCT250
     FM020100 18005KT P6SM FEW050 SCT250=



Latest METAR

669
SAUS80 KWBC 012000 RRG
MTRSAV
METAR KSAV 011953Z 13006KT 10SM SCT050 SCT110 BKN250 34/23 A3005 RMK AO2
SLP175 CB DSNT N AND SW T03390233 $


USA.gov is the U.S. government's official web portal to all federal, state and local government web resources and services.